Seaforth, Minnesota
Current Conditions -  °F | °C
As of 1:53 PM on Saturday 20 Dec 2014 (Local Time) from KRWF Reporting Station
Overcast Overcast  
Wind Chill: 24°   Ceiling: 1100
Heat Index: 32°   Visibility: 8mi
Dew Point: 29°   Wind: 9mph
Humidity: 88%   Direction: 190°S
Pressure: 30.07"   Gusts: NA
Location:  44.48°N, 95.33°W
Report Text: KRWF 201953Z AUTO 19008KT 8SM OVC011 00/M02 A3007 RMK AO2 SLP194 T00001017
Loading
Personal Weather Stations






























Interactive Weather Map New forecast layout! Learn more

10-Day Weather Forecast

Advertisements
Track Severe Weather on mobile